PST,Max TemperatureF,Mean TemperatureF,Min TemperatureF,Max Dew PointF,MeanDew PointF,Min DewpointF,Max Humidity, Mean Humidity, Min Humidity, Max Sea Level PressureIn, Mean Sea Level PressureIn, Min Sea Level PressureIn, Max VisibilityMiles, Mean VisibilityMiles, Min VisibilityMiles, Max Wind SpeedMPH, Mean Wind SpeedMPH, Max Gust SpeedMPH,PrecipitationIn, CloudCover, Events, WindDirDegrees
2014-1-1,50,33,15,23,18,12,81,63,33,30.47,30.40,30.32,10,10,8,8,2,8,0.00,0,,214
2014-1-2,52,35,18,26,20,14,84,63,35,30.43,30.34,30.23,10,10,10,9,1,14,0.00,0,,177
2014-1-3,55,38,20,31,24,17,88,67,35,30.27,30.20,30.11,10,10,10,10,2,22,0.00,0,,14
2014-1-4,48,30,12,26,14,8,92,71,28,30.45,30.33,30.19,10,8,1,8,2,21,0.00,0,,185
2014-1-5,48,29,10,18,9,4,76,54,21,30.55,30.47,30.40,10,10,10,7,2,8,0.00,0,,206
2014-1-6,40,29,18,18,13,8,74,50,34,30.49,30.39,30.28,10,10,10,10,3,12,0.00,3,,181
2014-1-7,45,32,19,29,20,11,85,60,39,30.30,30.24,30.16,10,10,10,7,2,12,T,5,Rain,174
2014-1-8,53,38,23,37,31,21,92,74,48,30.27,30.19,30.10,10,10,6,14,5,24,0.01,6,Rain,227
2014-1-9,47,41,34,36,31,26,79,69,45,30.29,30.21,30.13,10,10,10,21,5,25,T,6,,251
2014-1-10,49,36,22,34,29,22,92,80,56,30.35,30.28,30.16,10,10,10,14,3,31,0.00,3,,246
2014-1-11,51,39,26,39,33,26,92,78,54,30.30,30.08,29.95,10,10,9,32,9,40,0.10,4,Rain,214
2014-1-12,40,33,25,34,29,22,96,86,70,30.67,30.51,30.29,10,9,1,10,3,12,T,6,Rain,138
2014-1-13,36,34,31,33,31,30,100,94,89,30.79,30.69,30.58,10,4,0,9,4,11,0.00,8,Fog,175
2014-1-14,34,32,30,32,29,27,100,89,78,30.86,30.76,30.68,10,8,2,8,3,30,0.00,8,,165
2014-1-15,31,29,27,29,27,26,92,91,85,30.79,30.69,30.56,10,6,0,7,3,9,0.00,8,Fog,147
2014-1-16,28,27,25,27,25,23,100,93,92,30.69,30.58,30.43,10,2,0,8,2,9,0.00,8,Fog,158
2014-1-17,35,28,20,29,22,17,100,90,82,30.54,30.39,30.30,10,2,0,8,2,10,0.00,3,Fog,126
2014-1-18,45,33,20,34,24,17,92,86,57,30.49,30.36,30.26,10,3,0,8,1,9,0.00,3,Fog,227
2014-1-19,45,31,17,31,20,14,92,84,53,30.38,30.30,30.22,10,6,0,6,2,8,0.00,2,Fog,210
2014-1-20,51,33,15,30,19,13,92,81,38,30.47,30.37,30.27,10,4,0,7,1,8,0.00,0,Fog,143
2014-1-21,52,32,12,26,16,10,92,79,35,30.54,30.43,30.38,10,5,0,8,2,8,0.00,0,Fog,293
2014-1-22,54,34,14,24,19,11,92,62,28,30.43,30.32,30.22,10,10,10,9,3,12,0.00,0,,205
2014-1-23,63,46,28,25,21,18,64,39,17,30.30,30.22,30.13,10,10,6,22,10,27,0.00,0,,12
2014-1-24,65,48,31,21,19,17,56,33,17,30.39,30.32,30.26,10,10,10,24,7,28,0.00,0,,20
2014-1-25,58,39,19,22,17,12,74,49,21,30.48,30.39,30.33,10,10,10,9,2,10,0.00,0,,132
2014-1-26,58,38,17,23,17,11,77,54,23,30.35,30.26,30.16,10,10,10,8,2,9,0.00,0,,142
2014-1-27,46,34,22,33,23,15,85,63,45,30.33,30.28,30.20,10,10,10,6,1,6,T,3,Rain,60
2014-1-28,50,44,37,40,36,33,92,76,56,30.35,30.28,30.18,10,10,7,8,1,8,0.03,8,Rain,317
2014-1-29,53,46,39,44,37,30,92,72,50,30.17,30.07,30.03,10,10,5,23,6,29,0.05,6,Rain,296
2014-1-30,48,37,25,34,29,21,92,72,49,30.05,29.99,29.94,10,10,10,17,6,21,0.00,2,,30
2014-1-31,45,30,14,27,20,13,92,70,40,30.23,30.17,30.06,10,10,10,10,3,13,0.00,2,,97